sensor_id;sensor_type;location;lat;lon;timestamp;temperature;humidity
37642;DHT22;23486;51.956;5.888;2023-07-22T00:02:08;15.60;99.10
37642;DHT22;23486;51.956;5.888;2023-07-22T00:04:36;15.60;99.20
37642;DHT22;23486;51.956;5.888;2023-07-22T00:07:04;15.60;99.30
37642;DHT22;23486;51.956;5.888;2023-07-22T00:09:34;15.60;99.40
37642;DHT22;23486;51.956;5.888;2023-07-22T00:12:00;15.60;99.50
37642;DHT22;23486;51.956;5.888;2023-07-22T00:14:25;15.60;99.60
37642;DHT22;23486;51.956;5.888;2023-07-22T00:16:51;15.50;99.70
37642;DHT22;23486;51.956;5.888;2023-07-22T00:19:17;15.50;99.80
37642;DHT22;23486;51.956;5.888;2023-07-22T00:21:42;15.60;99.90
37642;DHT22;23486;51.956;5.888;2023-07-22T00:24:08;15.60;99.90
37642;DHT22;23486;51.956;5.888;2023-07-22T00:26:34;15.50;99.90
37642;DHT22;23486;51.956;5.888;2023-07-22T00:28:59;15.50;99.90
37642;DHT22;23486;51.956;5.888;2023-07-22T00:31:25;15.40;99.90
37642;DHT22;23486;51.956;5.888;2023-07-22T00:33:52;15.40;99.90
37642;DHT22;23486;51.956;5.888;2023-07-22T00:36:18;15.40;99.90
37642;DHT22;23486;51.956;5.888;2023-07-22T00:38:43;15.40;99.90
37642;DHT22;23486;51.956;5.888;2023-07-22T00:41:09;15.30;99.90
37642;DHT22;23486;51.956;5.888;2023-07-22T00:43:34;15.20;99.90
37642;DHT22;23486;51.956;5.888;2023-07-22T00:46:00;15.20;99.90
37642;DHT22;23486;51.956;5.888;2023-07-22T00:48:27;15.10;99.90
37642;DHT22;23486;51.956;5.888;2023-07-22T00:50:53;15.10;99.90
37642;DHT22;23486;51.956;5.888;2023-07-22T00:53:19;15.10;99.90
37642;DHT22;23486;51.956;5.888;2023-07-22T00:55:45;15.00;99.90
37642;DHT22;23486;51.956;5.888;2023-07-22T00:58:11;15.00;99.90
37642;DHT22;23486;51.956;5.888;2023-07-22T01:00:36;14.90;99.90
37642;DHT22;23486;51.956;5.888;2023-07-22T01:03:03;15.00;99.90
37642;DHT22;23486;51.956;5.888;2023-07-22T01:05:30;15.00;99.90
37642;DHT22;23486;51.956;5.888;2023-07-22T01:07:56;15.00;99.90
37642;DHT22;23486;51.956;5.888;2023-07-22T01:10:22;15.10;99.90
37642;DHT22;23486;51.956;5.888;2023-07-22T01:12:48;15.10;99.90
37642;DHT22;23486;51.956;5.888;2023-07-22T01:15:14;15.10;99.90
37642;DHT22;23486;51.956;5.888;2023-07-22T01:17:40;15.20;99.90
37642;DHT22;23486;51.956;5.888;2023-07-22T01:20:06;15.20;99.90
37642;DHT22;23486;51.956;5.888;2023-07-22T01:22:33;15.20;99.90
37642;DHT22;23486;51.956;5.888;2023-07-22T01:25:00;15.30;99.90
37642;DHT22;23486;51.956;5.888;2023-07-22T01:27:26;15.30;99.90
37642;DHT22;23486;51.956;5.888;2023-07-22T01:29:52;15.30;99.90
37642;DHT22;23486;51.956;5.888;2023-07-22T01:32:18;15.30;99.90
37642;DHT22;23486;51.956;5.888;2023-07-22T01:34:43;15.40;99.90
37642;DHT22;23486;51.956;5.888;2023-07-22T01:37:09;15.40;99.90
37642;DHT22;23486;51.956;5.888;2023-07-22T01:39:35;15.40;99.90
37642;DHT22;23486;51.956;5.888;2023-07-22T01:42:01;15.40;99.90
37642;DHT22;23486;51.956;5.888;2023-07-22T01:44:26;15.40;99.90
37642;DHT22;23486;51.956;5.888;2023-07-22T01:46:52;15.40;99.90
37642;DHT22;23486;51.956;5.888;2023-07-22T01:49:18;15.40;99.90
37642;DHT22;23486;51.956;5.888;2023-07-22T01:51:43;15.40;99.90
37642;DHT22;23486;51.956;5.888;2023-07-22T01:54:09;15.40;99.90
37642;DHT22;23486;51.956;5.888;2023-07-22T01:56:36;15.30;99.90
37642;DHT22;23486;51.956;5.888;2023-07-22T01:59:02;15.30;99.90
37642;DHT22;23486;51.956;5.888;2023-07-22T02:01:27;15.30;99.90
37642;DHT22;23486;51.956;5.888;2023-07-22T02:03:54;15.20;99.90
37642;DHT22;23486;51.956;5.888;2023-07-22T02:06:20;15.20;99.90
37642;DHT22;23486;51.956;5.888;2023-07-22T02:08:46;15.20;99.90
37642;DHT22;23486;51.956;5.888;2023-07-22T02:11:12;15.20;99.90
37642;DHT22;23486;51.956;5.888;2023-07-22T02:13:38;15.10;99.90
37642;DHT22;23486;51.956;5.888;2023-07-22T02:16:04;15.10;99.90
37642;DHT22;23486;51.956;5.888;2023-07-22T02:18:30;15.10;99.90
37642;DHT22;23486;51.956;5.888;2023-07-22T02:20:56;15.00;99.90
37642;DHT22;23486;51.956;5.888;2023-07-22T02:23:23;15.00;99.90
37642;DHT22;23486;51.956;5.888;2023-07-22T02:25:52;15.00;99.90
37642;DHT22;23486;51.956;5.888;2023-07-22T02:28:19;15.00;99.90
37642;DHT22;23486;51.956;5.888;2023-07-22T02:30:49;14.90;99.90
37642;DHT22;23486;51.956;5.888;2023-07-22T02:33:17;14.80;99.90
37642;DHT22;23486;51.956;5.888;2023-07-22T02:35:43;14.80;99.90
37642;DHT22;23486;51.956;5.888;2023-07-22T02:38:09;14.80;99.90
37642;DHT22;23486;51.956;5.888;2023-07-22T02:40:35;14.80;99.90
37642;DHT22;23486;51.956;5.888;2023-07-22T02:43:01;14.70;99.90
37642;DHT22;23486;51.956;5.888;2023-07-22T02:45:27;14.70;99.90
37642;DHT22;23486;51.956;5.888;2023-07-22T02:47:52;14.70;99.90
37642;DHT22;23486;51.956;5.888;2023-07-22T02:50:18;14.70;99.90
37642;DHT22;23486;51.956;5.888;2023-07-22T02:52:44;14.60;99.90
37642;DHT22;23486;51.956;5.888;2023-07-22T02:55:15;14.50;99.90
37642;DHT22;23486;51.956;5.888;2023-07-22T02:57:44;14.50;99.90
37642;DHT22;23486;51.956;5.888;2023-07-22T03:00:12;14.50;99.90
37642;DHT22;23486;51.956;5.888;2023-07-22T03:02:39;14.50;99.90
37642;DHT22;23486;51.956;5.888;2023-07-22T03:05:08;14.50;99.90
37642;DHT22;23486;51.956;5.888;2023-07-22T03:07:36;14.40;99.90
37642;DHT22;23486;51.956;5.888;2023-07-22T03:10:02;14.30;99.90
37642;DHT22;23486;51.956;5.888;2023-07-22T03:12:27;14.30;99.90
37642;DHT22;23486;51.956;5.888;2023-07-22T03:14:54;14.30;99.90
37642;DHT22;23486;51.956;5.888;2023-07-22T03:17:19;14.20;99.90
37642;DHT22;23486;51.956;5.888;2023-07-22T03:19:45;14.20;99.90
37642;DHT22;23486;51.956;5.888;2023-07-22T03:22:14;14.10;99.90
37642;DHT22;23486;51.956;5.888;2023-07-22T03:24:39;14.10;99.90
37642;DHT22;23486;51.956;5.888;2023-07-22T03:27:05;14.10;99.90
37642;DHT22;23486;51.956;5.888;2023-07-22T03:29:32;14.10;99.90
37642;DHT22;23486;51.956;5.888;2023-07-22T03:31:57;14.00;99.90
37642;DHT22;23486;51.956;5.888;2023-07-22T03:34:29;14.00;99.90
37642;DHT22;23486;51.956;5.888;2023-07-22T03:36:55;14.00;99.90
37642;DHT22;23486;51.956;5.888;2023-07-22T03:39:20;14.00;99.90
37642;DHT22;23486;51.956;5.888;2023-07-22T03:41:46;14.00;99.90
37642;DHT22;23486;51.956;5.888;2023-07-22T03:44:11;14.00;99.90
37642;DHT22;23486;51.956;5.888;2023-07-22T03:46:38;14.00;99.90
37642;DHT22;23486;51.956;5.888;2023-07-22T03:49:04;14.00;99.90
37642;DHT22;23486;51.956;5.888;2023-07-22T03:51:29;14.00;99.90
37642;DHT22;23486;51.956;5.888;2023-07-22T03:53:57;14.10;99.90
37642;DHT22;23486;51.956;5.888;2023-07-22T03:56:22;14.10;99.90
37642;DHT22;23486;51.956;5.888;2023-07-22T03:58:52;14.10;99.90
37642;DHT22;23486;51.956;5.888;2023-07-22T04:01:18;14.20;99.90
37642;DHT22;23486;51.956;5.888;2023-07-22T04:03:44;14.20;99.90
37642;DHT22;23486;51.956;5.888;2023-07-22T04:06:10;14.20;99.90
37642;DHT22;23486;51.956;5.888;2023-07-22T04:08:35;14.20;99.90
37642;DHT22;23486;51.956;5.888;2023-07-22T04:11:01;14.20;99.90
37642;DHT22;23486;51.956;5.888;2023-07-22T04:13:27;14.20;99.90
37642;DHT22;23486;51.956;5.888;2023-07-22T04:15:53;14.30;99.90
37642;DHT22;23486;51.956;5.888;2023-07-22T04:18:20;14.30;99.90
37642;DHT22;23486;51.956;5.888;2023-07-22T04:20:46;14.30;99.90
37642;DHT22;23486;51.956;5.888;2023-07-22T04:23:12;14.30;99.90
37642;DHT22;23486;51.956;5.888;2023-07-22T04:25:41;14.30;99.90
37642;DHT22;23486;51.956;5.888;2023-07-22T04:28:07;14.30;99.90
37642;DHT22;23486;51.956;5.888;2023-07-22T04:30:36;14.40;99.90
37642;DHT22;23486;51.956;5.888;2023-07-22T04:33:03;14.40;99.90
37642;DHT22;23486;51.956;5.888;2023-07-22T04:35:37;14.50;99.90
37642;DHT22;23486;51.956;5.888;2023-07-22T04:38:03;14.50;99.90
37642;DHT22;23486;51.956;5.888;2023-07-22T04:40:30;14.50;99.90
37642;DHT22;23486;51.956;5.888;2023-07-22T04:42:58;14.60;99.90
37642;DHT22;23486;51.956;5.888;2023-07-22T04:45:24;14.60;99.90
37642;DHT22;23486;51.956;5.888;2023-07-22T04:47:52;14.70;99.90
37642;DHT22;23486;51.956;5.888;2023-07-22T04:50:18;14.70;99.90
37642;DHT22;23486;51.956;5.888;2023-07-22T04:52:47;14.80;99.90
37642;DHT22;23486;51.956;5.888;2023-07-22T04:55:14;14.80;99.90
37642;DHT22;23486;51.956;5.888;2023-07-22T04:57:40;14.90;99.90
37642;DHT22;23486;51.956;5.888;2023-07-22T05:00:11;14.90;99.90
37642;DHT22;23486;51.956;5.888;2023-07-22T05:02:42;14.90;99.90
37642;DHT22;23486;51.956;5.888;2023-07-22T05:05:17;14.90;99.90
37642;DHT22;23486;51.956;5.888;2023-07-22T05:07:43;15.00;99.90
37642;DHT22;23486;51.956;5.888;2023-07-22T05:10:09;15.00;99.90
37642;DHT22;23486;51.956;5.888;2023-07-22T05:12:38;15.10;99.90
37642;DHT22;23486;51.956;5.888;2023-07-22T05:15:05;15.10;99.90
37642;DHT22;23486;51.956;5.888;2023-07-22T05:17:30;15.20;99.90
37642;DHT22;23486;51.956;5.888;2023-07-22T05:19:57;15.20;99.90
37642;DHT22;23486;51.956;5.888;2023-07-22T05:22:23;15.30;99.90
37642;DHT22;23486;51.956;5.888;2023-07-22T05:24:48;15.30;99.90
37642;DHT22;23486;51.956;5.888;2023-07-22T05:27:14;15.30;99.90
37642;DHT22;23486;51.956;5.888;2023-07-22T05:29:40;15.30;99.90
37642;DHT22;23486;51.956;5.888;2023-07-22T05:32:06;15.30;99.90
37642;DHT22;23486;51.956;5.888;2023-07-22T05:34:32;15.40;99.90
37642;DHT22;23486;51.956;5.888;2023-07-22T05:36:57;15.40;99.90
37642;DHT22;23486;51.956;5.888;2023-07-22T05:39:23;15.50;99.90
37642;DHT22;23486;51.956;5.888;2023-07-22T05:41:49;15.50;99.90
37642;DHT22;23486;51.956;5.888;2023-07-22T05:44:14;15.60;99.90
37642;DHT22;23486;51.956;5.888;2023-07-22T05:46:40;15.80;99.90
37642;DHT22;23486;51.956;5.888;2023-07-22T05:49:05;15.80;99.90
37642;DHT22;23486;51.956;5.888;2023-07-22T05:51:31;15.90;99.90
37642;DHT22;23486;51.956;5.888;2023-07-22T05:53:57;16.00;99.90
37642;DHT22;23486;51.956;5.888;2023-07-22T05:56:23;16.00;99.90
37642;DHT22;23486;51.956;5.888;2023-07-22T05:58:48;16.00;99.90
37642;DHT22;23486;51.956;5.888;2023-07-22T06:01:14;16.10;99.90
37642;DHT22;23486;51.956;5.888;2023-07-22T06:03:40;16.10;99.90
37642;DHT22;23486;51.956;5.888;2023-07-22T06:06:06;16.20;99.90
37642;DHT22;23486;51.956;5.888;2023-07-22T06:08:32;16.20;99.90
37642;DHT22;23486;51.956;5.888;2023-07-22T06:10:57;16.30;99.90
37642;DHT22;23486;51.956;5.888;2023-07-22T06:13:23;16.40;99.90
37642;DHT22;23486;51.956;5.888;2023-07-22T06:15:48;16.60;99.90
37642;DHT22;23486;51.956;5.888;2023-07-22T06:18:14;16.70;99.90
37642;DHT22;23486;51.956;5.888;2023-07-22T06:20:40;16.80;99.90
37642;DHT22;23486;51.956;5.888;2023-07-22T06:23:06;16.90;99.90
37642;DHT22;23486;51.956;5.888;2023-07-22T06:25:31;16.90;99.90
37642;DHT22;23486;51.956;5.888;2023-07-22T06:27:57;16.90;99.90
37642;DHT22;23486;51.956;5.888;2023-07-22T06:30:22;16.90;99.90
37642;DHT22;23486;51.956;5.888;2023-07-22T06:32:48;16.80;99.90
37642;DHT22;23486;51.956;5.888;2023-07-22T06:35:14;16.90;99.90
37642;DHT22;23486;51.956;5.888;2023-07-22T06:37:39;16.90;99.90
37642;DHT22;23486;51.956;5.888;2023-07-22T06:40:06;16.90;99.90
37642;DHT22;23486;51.956;5.888;2023-07-22T06:42:32;17.00;99.90
37642;DHT22;23486;51.956;5.888;2023-07-22T06:44:57;17.10;99.90
37642;DHT22;23486;51.956;5.888;2023-07-22T06:47:23;17.20;99.90
37642;DHT22;23486;51.956;5.888;2023-07-22T06:49:49;17.30;99.90
37642;DHT22;23486;51.956;5.888;2023-07-22T06:52:16;17.40;99.90
37642;DHT22;23486;51.956;5.888;2023-07-22T06:54:42;17.40;99.90
37642;DHT22;23486;51.956;5.888;2023-07-22T06:57:07;17.50;99.90
37642;DHT22;23486;51.956;5.888;2023-07-22T06:59:33;17.50;99.90
37642;DHT22;23486;51.956;5.888;2023-07-22T07:01:59;17.60;99.90
37642;DHT22;23486;51.956;5.888;2023-07-22T07:04:24;17.70;99.90
37642;DHT22;23486;51.956;5.888;2023-07-22T07:06:50;17.70;99.90
37642;DHT22;23486;51.956;5.888;2023-07-22T07:09:16;17.80;99.90
37642;DHT22;23486;51.956;5.888;2023-07-22T07:11:42;17.80;99.90
37642;DHT22;23486;51.956;5.888;2023-07-22T07:14:07;17.80;99.90
37642;DHT22;23486;51.956;5.888;2023-07-22T07:16:33;17.80;99.90
37642;DHT22;23486;51.956;5.888;2023-07-22T07:19:00;17.80;99.90
37642;DHT22;23486;51.956;5.888;2023-07-22T07:21:26;17.80;99.90
37642;DHT22;23486;51.956;5.888;2023-07-22T07:23:53;17.80;99.90
37642;DHT22;23486;51.956;5.888;2023-07-22T07:26:20;17.90;99.90
37642;DHT22;23486;51.956;5.888;2023-07-22T07:28:47;17.90;99.90
37642;DHT22;23486;51.956;5.888;2023-07-22T07:31:13;18.00;99.90
37642;DHT22;23486;51.956;5.888;2023-07-22T07:33:38;18.00;99.90
37642;DHT22;23486;51.956;5.888;2023-07-22T07:36:04;18.20;99.90
37642;DHT22;23486;51.956;5.888;2023-07-22T07:38:30;18.30;99.90
37642;DHT22;23486;51.956;5.888;2023-07-22T07:40:57;18.50;99.90
37642;DHT22;23486;51.956;5.888;2023-07-22T07:43:23;18.60;99.90
37642;DHT22;23486;51.956;5.888;2023-07-22T07:45:49;18.70;99.90
37642;DHT22;23486;51.956;5.888;2023-07-22T07:48:15;18.80;99.90
37642;DHT22;23486;51.956;5.888;2023-07-22T07:50:42;18.90;99.90
37642;DHT22;23486;51.956;5.888;2023-07-22T07:53:08;18.90;99.90
37642;DHT22;23486;51.956;5.888;2023-07-22T07:55:34;19.10;99.90
37642;DHT22;23486;51.956;5.888;2023-07-22T07:57:59;19.20;99.90
37642;DHT22;23486;51.956;5.888;2023-07-22T08:00:25;19.30;99.90
37642;DHT22;23486;51.956;5.888;2023-07-22T08:02:51;19.50;99.90
37642;DHT22;23486;51.956;5.888;2023-07-22T08:05:16;19.50;99.90
37642;DHT22;23486;51.956;5.888;2023-07-22T08:07:42;19.70;99.90
37642;DHT22;23486;51.956;5.888;2023-07-22T08:10:08;19.70;99.90
37642;DHT22;23486;51.956;5.888;2023-07-22T08:12:35;19.80;99.90
37642;DHT22;23486;51.956;5.888;2023-07-22T08:15:02;19.80;99.90
37642;DHT22;23486;51.956;5.888;2023-07-22T08:17:28;19.90;99.90
37642;DHT22;23486;51.956;5.888;2023-07-22T08:19:54;19.90;99.90
37642;DHT22;23486;51.956;5.888;2023-07-22T08:22:19;19.90;99.90
37642;DHT22;23486;51.956;5.888;2023-07-22T08:24:45;20.00;99.90
37642;DHT22;23486;51.956;5.888;2023-07-22T08:27:10;20.00;99.90
37642;DHT22;23486;51.956;5.888;2023-07-22T08:29:36;20.00;99.90
37642;DHT22;23486;51.956;5.888;2023-07-22T08:32:02;20.10;99.90
37642;DHT22;23486;51.956;5.888;2023-07-22T08:34:28;20.20;99.90
37642;DHT22;23486;51.956;5.888;2023-07-22T08:36:53;20.30;99.90
37642;DHT22;23486;51.956;5.888;2023-07-22T08:39:19;20.30;99.90
37642;DHT22;23486;51.956;5.888;2023-07-22T08:41:49;20.30;99.90
37642;DHT22;23486;51.956;5.888;2023-07-22T08:44:21;20.40;99.90
37642;DHT22;23486;51.956;5.888;2023-07-22T08:46:47;20.40;99.90
37642;DHT22;23486;51.956;5.888;2023-07-22T08:49:15;20.50;99.90
37642;DHT22;23486;51.956;5.888;2023-07-22T08:51:41;20.50;99.90
37642;DHT22;23486;51.956;5.888;2023-07-22T08:54:08;20.60;99.90
37642;DHT22;23486;51.956;5.888;2023-07-22T08:56:34;20.70;99.90
37642;DHT22;23486;51.956;5.888;2023-07-22T08:59:01;20.70;99.90
37642;DHT22;23486;51.956;5.888;2023-07-22T09:01:27;20.80;99.90
37642;DHT22;23486;51.956;5.888;2023-07-22T09:03:53;20.90;99.90
37642;DHT22;23486;51.956;5.888;2023-07-22T09:06:19;21.00;99.90
37642;DHT22;23486;51.956;5.888;2023-07-22T09:08:45;21.00;99.90
37642;DHT22;23486;51.956;5.888;2023-07-22T09:11:11;21.10;99.70
37642;DHT22;23486;51.956;5.888;2023-07-22T09:13:38;21.10;99.60
37642;DHT22;23486;51.956;5.888;2023-07-22T09:16:06;21.10;99.30
37642;DHT22;23486;51.956;5.888;2023-07-22T09:18:34;21.10;99.10
37642;DHT22;23486;51.956;5.888;2023-07-22T09:21:00;21.20;98.90
37642;DHT22;23486;51.956;5.888;2023-07-22T09:23:36;21.20;98.80
37642;DHT22;23486;51.956;5.888;2023-07-22T09:26:10;21.40;98.40
37642;DHT22;23486;51.956;5.888;2023-07-22T09:28:56;21.40;98.50
37642;DHT22;23486;51.956;5.888;2023-07-22T09:31:26;21.40;98.30
37642;DHT22;23486;51.956;5.888;2023-07-22T09:33:52;21.40;98.20
37642;DHT22;23486;51.956;5.888;2023-07-22T09:36:22;21.50;98.00
37642;DHT22;23486;51.956;5.888;2023-07-22T09:39:02;21.50;97.70
37642;DHT22;23486;51.956;5.888;2023-07-22T09:41:28;21.50;97.40
37642;DHT22;23486;51.956;5.888;2023-07-22T09:43:56;21.50;97.20
37642;DHT22;23486;51.956;5.888;2023-07-22T09:46:22;21.50;96.60
37642;DHT22;23486;51.956;5.888;2023-07-22T09:48:55;21.60;96.50
37642;DHT22;23486;51.956;5.888;2023-07-22T09:51:21;21.70;96.20
37642;DHT22;23486;51.956;5.888;2023-07-22T09:53:58;21.70;95.50
37642;DHT22;23486;51.956;5.888;2023-07-22T09:56:24;21.80;95.40
37642;DHT22;23486;51.956;5.888;2023-07-22T09:58:51;21.90;95.20
37642;DHT22;23486;51.956;5.888;2023-07-22T10:01:19;22.00;95.10
37642;DHT22;23486;51.956;5.888;2023-07-22T10:03:45;22.10;95.10
37642;DHT22;23486;51.956;5.888;2023-07-22T10:06:14;22.20;94.30
37642;DHT22;23486;51.956;5.888;2023-07-22T10:08:43;22.30;94.50
37642;DHT22;23486;51.956;5.888;2023-07-22T10:11:11;22.40;94.20
37642;DHT22;23486;51.956;5.888;2023-07-22T10:13:38;22.40;94.10
37642;DHT22;23486;51.956;5.888;2023-07-22T10:16:05;22.50;94.10
37642;DHT22;23486;51.956;5.888;2023-07-22T10:18:32;22.50;93.90
37642;DHT22;23486;51.956;5.888;2023-07-22T10:20:58;22.50;93.50
37642;DHT22;23486;51.956;5.888;2023-07-22T10:23:25;22.50;92.70
37642;DHT22;23486;51.956;5.888;2023-07-22T10:25:52;22.50;92.90
37642;DHT22;23486;51.956;5.888;2023-07-22T10:28:20;22.60;92.70
37642;DHT22;23486;51.956;5.888;2023-07-22T10:30:46;22.60;92.80
37642;DHT22;23486;51.956;5.888;2023-07-22T10:33:12;22.80;92.90
37642;DHT22;23486;51.956;5.888;2023-07-22T10:35:43;22.90;92.80
37642;DHT22;23486;51.956;5.888;2023-07-22T10:38:14;23.00;92.40
37642;DHT22;23486;51.956;5.888;2023-07-22T10:40:51;23.00;91.60
37642;DHT22;23486;51.956;5.888;2023-07-22T10:43:24;23.10;91.80
37642;DHT22;23486;51.956;5.888;2023-07-22T10:45:54;23.20;91.70
37642;DHT22;23486;51.956;5.888;2023-07-22T10:48:23;23.20;91.30
37642;DHT22;23486;51.956;5.888;2023-07-22T10:50:52;23.10;90.90
37642;DHT22;23486;51.956;5.888;2023-07-22T11:06:31;23.00;90.50
37642;DHT22;23486;51.956;5.888;2023-07-22T11:08:58;22.90;90.40
37642;DHT22;23486;51.956;5.888;2023-07-22T11:11:41;22.80;90.30
37642;DHT22;23486;51.956;5.888;2023-07-22T11:16:39;22.50;90.00
37642;DHT22;23486;51.956;5.888;2023-07-22T11:19:04;22.30;90.10
37642;DHT22;23486;51.956;5.888;2023-07-22T11:21:30;22.10;90.30
37642;DHT22;23486;51.956;5.888;2023-07-22T11:23:56;22.00;90.10
37642;DHT22;23486;51.956;5.888;2023-07-22T11:26:21;21.90;90.30
37642;DHT22;23486;51.956;5.888;2023-07-22T11:28:47;21.80;90.50
37642;DHT22;23486;51.956;5.888;2023-07-22T11:31:13;21.70;90.60
37642;DHT22;23486;51.956;5.888;2023-07-22T11:33:42;21.70;90.60
37642;DHT22;23486;51.956;5.888;2023-07-22T11:36:09;21.60;90.70
37642;DHT22;23486;51.956;5.888;2023-07-22T11:38:36;21.60;90.70
37642;DHT22;23486;51.956;5.888;2023-07-22T11:41:02;21.50;90.90
37642;DHT22;23486;51.956;5.888;2023-07-22T11:43:27;21.50;91.00
37642;DHT22;23486;51.956;5.888;2023-07-22T11:45:53;21.60;91.20
37642;DHT22;23486;51.956;5.888;2023-07-22T11:48:19;21.70;91.20
37642;DHT22;23486;51.956;5.888;2023-07-22T11:50:45;21.80;90.90
37642;DHT22;23486;51.956;5.888;2023-07-22T11:53:10;21.90;90.50
37642;DHT22;23486;51.956;5.888;2023-07-22T11:55:36;22.00;90.60
37642;DHT22;23486;51.956;5.888;2023-07-22T11:58:03;21.90;90.30
37642;DHT22;23486;51.956;5.888;2023-07-22T12:00:29;21.90;90.30
37642;DHT22;23486;51.956;5.888;2023-07-22T12:02:54;21.80;90.40
37642;DHT22;23486;51.956;5.888;2023-07-22T12:05:22;21.70;90.40
37642;DHT22;23486;51.956;5.888;2023-07-22T12:07:48;21.60;90.50
37642;DHT22;23486;51.956;5.888;2023-07-22T12:10:15;21.50;91.10
37642;DHT22;23486;51.956;5.888;2023-07-22T12:12:45;21.60;91.20
37642;DHT22;23486;51.956;5.888;2023-07-22T12:15:21;21.80;91.10
37642;DHT22;23486;51.956;5.888;2023-07-22T12:17:56;22.20;91.00
37642;DHT22;23486;51.956;5.888;2023-07-22T12:20:32;22.50;90.50
37642;DHT22;23486;51.956;5.888;2023-07-22T12:22:59;22.70;89.90
37642;DHT22;23486;51.956;5.888;2023-07-22T12:25:25;22.90;88.90
37642;DHT22;23486;51.956;5.888;2023-07-22T12:27:51;22.90;88.50
37642;DHT22;23486;51.956;5.888;2023-07-22T12:30:16;22.90;87.60
37642;DHT22;23486;51.956;5.888;2023-07-22T12:32:42;22.80;87.80
37642;DHT22;23486;51.956;5.888;2023-07-22T12:35:09;22.60;88.20
37642;DHT22;23486;51.956;5.888;2023-07-22T12:37:36;22.50;88.50
37642;DHT22;23486;51.956;5.888;2023-07-22T12:40:02;22.30;88.20
37642;DHT22;23486;51.956;5.888;2023-07-22T12:42:30;22.10;87.40
37642;DHT22;23486;51.956;5.888;2023-07-22T12:44:55;21.90;88.00
37642;DHT22;23486;51.956;5.888;2023-07-22T12:47:21;21.70;88.30
37642;DHT22;23486;51.956;5.888;2023-07-22T12:49:47;21.60;88.30
37642;DHT22;23486;51.956;5.888;2023-07-22T12:52:12;21.40;89.80
37642;DHT22;23486;51.956;5.888;2023-07-22T12:54:38;21.00;91.20
37642;DHT22;23486;51.956;5.888;2023-07-22T12:57:05;20.50;91.80
37642;DHT22;23486;51.956;5.888;2023-07-22T12:59:31;20.20;92.50
37642;DHT22;23486;51.956;5.888;2023-07-22T13:01:57;19.90;93.20
37642;DHT22;23486;51.956;5.888;2023-07-22T13:04:23;19.80;93.50
37642;DHT22;23486;51.956;5.888;2023-07-22T13:06:50;19.80;94.20
37642;DHT22;23486;51.956;5.888;2023-07-22T13:09:17;19.60;94.60
37642;DHT22;23486;51.956;5.888;2023-07-22T13:11:43;19.70;94.90
37642;DHT22;23486;51.956;5.888;2023-07-22T13:14:08;19.80;95.00
37642;DHT22;23486;51.956;5.888;2023-07-22T13:16:34;20.10;95.20
37642;DHT22;23486;51.956;5.888;2023-07-22T13:18:59;20.40;95.30
37642;DHT22;23486;51.956;5.888;2023-07-22T13:21:26;20.80;95.30
37642;DHT22;23486;51.956;5.888;2023-07-22T13:23:52;21.20;95.10
37642;DHT22;23486;51.956;5.888;2023-07-22T13:26:18;21.40;94.80
37642;DHT22;23486;51.956;5.888;2023-07-22T13:28:43;21.60;94.60
37642;DHT22;23486;51.956;5.888;2023-07-22T13:31:09;21.90;94.50
37642;DHT22;23486;51.956;5.888;2023-07-22T13:33:34;22.20;94.40
37642;DHT22;23486;51.956;5.888;2023-07-22T13:36:00;22.40;94.20
37642;DHT22;23486;51.956;5.888;2023-07-22T13:38:25;22.60;94.00
37642;DHT22;23486;51.956;5.888;2023-07-22T13:40:51;22.60;93.70
37642;DHT22;23486;51.956;5.888;2023-07-22T13:43:17;22.80;93.60
37642;DHT22;23486;51.956;5.888;2023-07-22T13:45:42;22.80;93.20
37642;DHT22;23486;51.956;5.888;2023-07-22T13:48:08;22.60;92.90
37642;DHT22;23486;51.956;5.888;2023-07-22T13:50:34;22.50;92.70
37642;DHT22;23486;51.956;5.888;2023-07-22T13:52:59;22.30;92.80
37642;DHT22;23486;51.956;5.888;2023-07-22T13:55:25;22.10;92.50
37642;DHT22;23486;51.956;5.888;2023-07-22T13:57:50;21.90;92.60
37642;DHT22;23486;51.956;5.888;2023-07-22T14:00:16;21.60;92.50
37642;DHT22;23486;51.956;5.888;2023-07-22T14:02:42;21.40;92.80
37642;DHT22;23486;51.956;5.888;2023-07-22T14:05:08;21.30;93.00
37642;DHT22;23486;51.956;5.888;2023-07-22T14:07:35;21.20;93.10
37642;DHT22;23486;51.956;5.888;2023-07-22T14:10:01;21.20;93.10
37642;DHT22;23486;51.956;5.888;2023-07-22T14:12:26;21.20;93.20
37642;DHT22;23486;51.956;5.888;2023-07-22T14:14:52;21.20;93.40
37642;DHT22;23486;51.956;5.888;2023-07-22T14:17:17;21.10;93.20
37642;DHT22;23486;51.956;5.888;2023-07-22T14:19:43;21.00;93.30
37642;DHT22;23486;51.956;5.888;2023-07-22T14:22:08;20.90;93.50
37642;DHT22;23486;51.956;5.888;2023-07-22T14:24:34;20.70;93.70
37642;DHT22;23486;51.956;5.888;2023-07-22T14:27:00;20.70;93.80
37642;DHT22;23486;51.956;5.888;2023-07-22T14:29:25;20.70;93.90
37642;DHT22;23486;51.956;5.888;2023-07-22T14:31:52;20.90;93.90
37642;DHT22;23486;51.956;5.888;2023-07-22T14:34:17;21.00;93.80
37642;DHT22;23486;51.956;5.888;2023-07-22T14:36:43;21.10;93.90
37642;DHT22;23486;51.956;5.888;2023-07-22T14:39:09;21.30;93.90
37642;DHT22;23486;51.956;5.888;2023-07-22T14:41:35;21.40;93.90
37642;DHT22;23486;51.956;5.888;2023-07-22T14:44:00;21.40;93.90
37642;DHT22;23486;51.956;5.888;2023-07-22T14:46:26;21.30;93.80
37642;DHT22;23486;51.956;5.888;2023-07-22T14:48:52;21.30;93.90
37642;DHT22;23486;51.956;5.888;2023-07-22T14:51:17;21.30;93.70
37642;DHT22;23486;51.956;5.888;2023-07-22T14:53:43;21.30;93.50
37642;DHT22;23486;51.956;5.888;2023-07-22T14:56:09;21.40;93.40
37642;DHT22;23486;51.956;5.888;2023-07-22T14:58:34;21.40;93.60
37642;DHT22;23486;51.956;5.888;2023-07-22T15:01:00;21.50;93.40
37642;DHT22;23486;51.956;5.888;2023-07-22T15:03:26;21.50;93.20
37642;DHT22;23486;51.956;5.888;2023-07-22T15:05:52;21.40;93.20
37642;DHT22;23486;51.956;5.888;2023-07-22T15:08:17;21.30;93.20
37642;DHT22;23486;51.956;5.888;2023-07-22T15:10:43;21.20;93.30
37642;DHT22;23486;51.956;5.888;2023-07-22T15:13:09;21.10;93.40
37642;DHT22;23486;51.956;5.888;2023-07-22T15:15:34;21.00;93.50
37642;DHT22;23486;51.956;5.888;2023-07-22T15:18:00;21.20;93.50
37642;DHT22;23486;51.956;5.888;2023-07-22T15:20:26;21.10;93.50
37642;DHT22;23486;51.956;5.888;2023-07-22T15:22:52;21.20;93.50
37642;DHT22;23486;51.956;5.888;2023-07-22T15:25:17;21.30;93.50
37642;DHT22;23486;51.956;5.888;2023-07-22T15:27:43;21.40;93.30
37642;DHT22;23486;51.956;5.888;2023-07-22T15:30:09;21.50;93.00
37642;DHT22;23486;51.956;5.888;2023-07-22T15:32:36;21.50;92.70
37642;DHT22;23486;51.956;5.888;2023-07-22T15:35:01;21.40;92.70
37642;DHT22;23486;51.956;5.888;2023-07-22T15:37:27;21.40;92.60
37642;DHT22;23486;51.956;5.888;2023-07-22T15:39:53;21.30;92.60
37642;DHT22;23486;51.956;5.888;2023-07-22T15:42:19;21.10;92.90